createdAt,value
2022-09-28T00:01:02.733Z,10.60
2022-09-28T00:03:29.927Z,7.40
2022-09-28T00:05:57.221Z,17.58
2022-09-28T00:08:24.568Z,21.80
2022-09-28T00:10:51.815Z,11.45
2022-09-28T00:13:19.243Z,7.88
2022-09-28T00:15:46.492Z,6.13
2022-09-28T00:18:13.686Z,10.52
2022-09-28T00:20:40.934Z,9.48
2022-09-28T00:23:08.188Z,11.20
2022-09-28T00:25:36.929Z,15.60
2022-09-28T00:28:05.248Z,22.02
2022-09-28T00:30:32.496Z,10.98
2022-09-28T00:33:02.178Z,14.48
2022-09-28T00:35:29.566Z,9.55
2022-09-28T00:37:56.814Z,18.42
2022-09-28T00:40:24.090Z,9.77
2022-09-28T00:42:51.363Z,10.95
2022-09-28T00:45:19.534Z,24.58
2022-09-28T00:47:49.569Z,15.05
2022-09-28T00:50:16.885Z,13.77
2022-09-28T00:52:44.898Z,8.82
2022-09-28T00:55:12.157Z,15.15
2022-09-28T00:57:39.436Z,14.65
2022-09-28T01:00:06.946Z,17.92
2022-09-28T01:02:34.340Z,9.80
2022-09-28T01:05:01.930Z,15.50
2022-09-28T01:07:29.335Z,8.52
2022-09-28T01:09:56.585Z,15.27
2022-09-28T01:12:23.791Z,14.27
2022-09-28T01:14:51.140Z,12.43
2022-09-28T01:17:18.362Z,16.67
2022-09-28T01:19:51.445Z,21.63
2022-09-28T01:22:21.147Z,11.20
2022-09-28T01:24:48.358Z,17.92
2022-09-28T01:27:16.389Z,12.90
2022-09-28T01:29:45.087Z,11.30
2022-09-28T01:32:13.535Z,10.30
2022-09-28T01:34:40.780Z,10.77
2022-09-28T01:37:08.072Z,7.93
2022-09-28T01:39:37.190Z,17.48
2022-09-28T01:42:04.430Z,11.75
2022-09-28T01:44:31.900Z,12.18
2022-09-28T01:47:03.609Z,9.98
2022-09-28T01:49:31.300Z,15.43
2022-09-28T01:51:58.553Z,14.77
2022-09-28T01:54:25.924Z,14.98
2022-09-28T01:56:53.240Z,13.00
2022-09-28T01:59:20.594Z,8.38
2022-09-28T02:01:47.888Z,11.40
2022-09-28T02:04:16.016Z,11.55
2022-09-28T02:06:47.776Z,12.77
2022-09-28T02:09:15.201Z,9.05
2022-09-28T02:11:44.946Z,11.82
2022-09-28T02:14:12.569Z,16.02
2022-09-28T02:16:41.208Z,9.02
2022-09-28T02:19:08.622Z,17.40
2022-09-28T02:21:36.461Z,22.00
2022-09-28T02:24:04.024Z,8.98
2022-09-28T02:26:31.736Z,16.48
2022-09-28T02:28:59.159Z,7.80
2022-09-28T02:31:26.458Z,19.30
2022-09-28T02:33:53.935Z,8.85
2022-09-28T02:36:21.117Z,16.40
2022-09-28T02:38:48.348Z,8.48
2022-09-28T02:41:15.682Z,19.73
2022-09-28T02:43:42.901Z,8.57
2022-09-28T02:46:10.307Z,11.52
2022-09-28T02:48:44.225Z,16.48
2022-09-28T02:51:15.832Z,8.38
2022-09-28T02:53:43.141Z,7.00
2022-09-28T02:56:10.825Z,9.18
2022-09-28T02:58:38.076Z,6.38
2022-09-28T03:01:07.635Z,9.40
2022-09-28T03:03:35.089Z,7.60
2022-09-28T03:06:02.340Z,8.77
2022-09-28T03:08:35.694Z,9.75
2022-09-28T03:11:03.111Z,14.25
2022-09-28T03:13:31.144Z,11.60
2022-09-28T03:15:59.715Z,16.63
2022-09-28T03:18:27.003Z,16.10
2022-09-28T03:20:54.297Z,9.45
2022-09-28T03:23:25.522Z,13.73
2022-09-28T03:25:53.199Z,18.38
2022-09-28T03:28:21.438Z,11.00
2022-09-28T03:30:49.118Z,14.55
2022-09-28T03:33:16.383Z,16.33
2022-09-28T03:35:43.604Z,12.70
2022-09-28T03:38:10.953Z,14.55
2022-09-28T03:40:38.817Z,16.02
2022-09-28T03:43:06.094Z,17.05
2022-09-28T03:45:33.435Z,8.20
2022-09-28T03:48:00.718Z,7.07
2022-09-28T03:50:27.924Z,10.77
2022-09-28T03:52:55.291Z,8.00
2022-09-28T03:55:22.528Z,9.82
2022-09-28T03:57:49.791Z,11.60
2022-09-28T04:00:18.429Z,15.30
2022-09-28T04:02:45.630Z,14.13
2022-09-28T04:05:12.898Z,18.20
2022-09-28T04:07:40.195Z,14.98
2022-09-28T04:10:07.402Z,13.73
2022-09-28T04:12:34.744Z,6.00
2022-09-28T04:15:02.014Z,10.80
2022-09-28T04:17:29.349Z,10.80
2022-09-28T04:19:57.813Z,15.98
2022-09-28T04:22:44.473Z,13.77
2022-09-28T04:25:11.812Z,9.40
2022-09-28T04:27:57.840Z,21.23
2022-09-28T04:30:25.326Z,13.77
2022-09-28T04:32:53.123Z,11.63
2022-09-28T04:35:20.501Z,16.13
2022-09-28T04:37:47.871Z,17.17
2022-09-28T04:40:15.700Z,11.63
2022-09-28T04:42:43.339Z,9.32
2022-09-28T04:45:10.574Z,13.15
2022-09-28T04:47:42.312Z,15.75
2022-09-28T04:50:20.608Z,13.82
2022-09-28T04:53:06.283Z,23.25
2022-09-28T04:55:33.632Z,12.13
2022-09-28T04:58:02.463Z,17.50
2022-09-28T05:00:29.898Z,14.27
2022-09-28T05:03:07.154Z,10.63
2022-09-28T05:06:01.581Z,14.35
2022-09-28T05:08:49.172Z,13.13
2022-09-28T05:11:17.530Z,17.70
2022-09-28T05:13:45.510Z,15.60
2022-09-28T05:16:16.170Z,13.25
2022-09-28T05:19:01.817Z,13.07
2022-09-28T05:21:30.063Z,16.15
2022-09-28T05:23:58.388Z,16.65
2022-09-28T05:26:26.256Z,23.33
2022-09-28T05:28:53.833Z,18.08
2022-09-28T05:31:56.506Z,17.25
2022-09-28T05:34:26.632Z,22.08
2022-09-28T05:36:54.898Z,11.43
2022-09-28T05:39:22.181Z,20.65
2022-09-28T05:41:49.494Z,6.50
2022-09-28T05:44:16.895Z,15.80
2022-09-28T05:46:44.523Z,16.42
2022-09-28T05:49:13.745Z,20.63
2022-09-28T05:51:41.055Z,12.02
2022-09-28T05:54:09.502Z,14.48
2022-09-28T05:56:41.408Z,13.30
2022-09-28T05:59:09.412Z,12.00
2022-09-28T06:01:37.405Z,18.90
2022-09-28T06:04:09.000Z,14.57
2022-09-28T06:06:38.452Z,22.50
2022-09-28T06:09:05.639Z,12.85
2022-09-28T06:11:48.830Z,10.55
2022-09-28T06:14:32.453Z,19.83
2022-09-28T06:16:59.843Z,16.70
2022-09-28T06:19:27.216Z,17.58
2022-09-28T06:22:08.443Z,13.75
2022-09-28T06:24:44.240Z,18.25
2022-09-28T06:27:11.531Z,12.90
2022-09-28T06:29:38.878Z,9.43
2022-09-28T06:32:07.635Z,8.95
2022-09-28T06:34:37.024Z,21.40
2022-09-28T06:37:04.765Z,19.73
2022-09-28T06:39:32.697Z,13.77
2022-09-28T06:42:03.286Z,14.25
2022-09-28T06:44:50.530Z,17.23
2022-09-28T06:47:41.996Z,17.45
2022-09-28T06:50:25.030Z,22.20
2022-09-28T06:53:11.660Z,20.83
2022-09-28T06:55:50.154Z,14.48
2022-09-28T06:58:18.111Z,14.77
2022-09-28T07:00:45.418Z,26.17
2022-09-28T07:03:12.726Z,17.15
2022-09-28T07:05:58.551Z,16.73
2022-09-28T07:09:25.420Z,16.67
2022-09-28T07:12:13.559Z,16.48
2022-09-28T07:14:56.126Z,13.27
2022-09-28T07:17:24.303Z,20.10
2022-09-28T07:20:00.497Z,23.77
2022-09-28T07:22:40.800Z,9.50
2022-09-28T07:25:12.865Z,10.07
2022-09-28T07:27:43.025Z,9.18
2022-09-28T07:30:17.408Z,13.25
2022-09-28T07:32:59.633Z,30.10
2022-09-28T07:35:36.466Z,8.73
2022-09-28T07:38:03.932Z,14.73
2022-09-28T07:40:51.126Z,14.65
2022-09-28T07:43:21.815Z,19.65
2022-09-28T07:45:52.517Z,10.13
2022-09-28T07:48:19.948Z,19.52
2022-09-28T07:51:00.916Z,22.05
2022-09-28T07:53:48.405Z,18.05
2022-09-28T07:56:21.413Z,21.05
2022-09-28T07:58:55.166Z,16.10
2022-09-28T08:04:10.217Z,16.52
2022-09-28T08:06:40.542Z,12.82
2022-09-28T08:09:09.956Z,10.63
2022-09-28T08:11:55.923Z,11.32
2022-09-28T08:14:35.248Z,12.25
2022-09-28T08:17:15.891Z,23.33
2022-09-28T08:20:08.695Z,15.38
2022-09-28T08:22:36.336Z,17.17
2022-09-28T08:25:03.631Z,10.80
2022-09-28T08:27:31.028Z,14.93
2022-09-28T08:29:58.226Z,19.40
2022-09-28T08:32:57.489Z,12.60
2022-09-28T08:35:45.589Z,10.15
2022-09-28T08:38:29.551Z,6.33
2022-09-28T08:41:16.455Z,12.50
2022-09-28T08:44:10.306Z,10.13
2022-09-28T08:47:00.932Z,8.65
2022-09-28T08:50:02.339Z,11.82
2022-09-28T08:52:36.596Z,10.75
2022-09-28T08:55:10.301Z,9.98
2022-09-28T08:57:42.108Z,16.08
2022-09-28T09:00:11.778Z,15.23
2022-09-28T09:02:40.628Z,7.43
2022-09-28T09:05:14.876Z,10.52
2022-09-28T09:08:03.032Z,10.48
2022-09-28T09:10:30.397Z,16.98
2022-09-28T09:12:58.749Z,13.48
2022-09-28T09:15:26.276Z,15.18
2022-09-28T09:17:53.748Z,11.50
2022-09-28T09:20:39.613Z,10.30
2022-09-28T09:23:17.952Z,12.85
2022-09-28T09:25:45.729Z,11.25
2022-09-28T09:28:13.931Z,15.45
2022-09-28T09:30:41.305Z,14.30
2022-09-28T09:33:08.590Z,9.98
2022-09-28T09:35:51.960Z,8.40
2022-09-28T09:38:19.332Z,14.85
2022-09-28T09:41:04.854Z,8.68
2022-09-28T09:43:50.794Z,7.88
2022-09-28T09:46:24.936Z,12.20
2022-09-28T09:49:02.876Z,11.77
2022-09-28T09:51:30.361Z,12.95
2022-09-28T09:54:00.175Z,13.40
2022-09-28T09:56:28.186Z,10.75
2022-09-28T09:59:04.591Z,7.60
2022-09-28T10:01:37.351Z,11.32
2022-09-28T10:04:25.380Z,6.57
2022-09-28T10:06:54.745Z,10.38
2022-09-28T10:09:22.026Z,5.22
2022-09-28T10:11:50.290Z,12.63
2022-09-28T10:14:17.965Z,8.18
2022-09-28T10:16:51.390Z,7.32
2022-09-28T10:19:38.581Z,9.82
2022-09-28T10:22:08.705Z,6.70
2022-09-28T10:24:36.098Z,5.72
2022-09-28T10:27:03.283Z,5.50
2022-09-28T10:29:30.610Z,12.73
2022-09-28T10:31:58.088Z,7.10
2022-09-28T10:34:32.683Z,7.13
2022-09-28T10:37:06.639Z,7.00
2022-09-28T10:39:53.819Z,6.47
2022-09-28T10:42:21.040Z,12.52
2022-09-28T10:44:48.260Z,4.55
2022-09-28T10:47:24.845Z,5.35
2022-09-28T10:49:52.238Z,18.92
2022-09-28T10:52:23.452Z,4.50
2022-09-28T10:54:50.903Z,3.08
2022-09-28T10:57:18.091Z,6.80
2022-09-28T10:59:55.051Z,5.88
2022-09-28T11:02:35.740Z,9.65
2022-09-28T11:05:07.367Z,2.53
2022-09-28T11:07:39.691Z,3.38
2022-09-28T11:10:06.940Z,3.25
2022-09-28T11:12:34.859Z,4.35
2022-09-28T11:15:02.115Z,1.95
2022-09-28T11:17:29.637Z,2.80
2022-09-28T11:19:57.307Z,3.78
2022-09-28T11:22:25.108Z,7.22
2022-09-28T11:24:56.378Z,6.57
2022-09-28T11:27:25.062Z,3.10
2022-09-28T11:29:52.271Z,7.65
2022-09-28T11:32:30.609Z,1.75
2022-09-28T11:35:16.149Z,3.80
2022-09-28T11:37:43.629Z,5.07
2022-09-28T11:40:12.640Z,6.13
2022-09-28T11:42:39.973Z,7.13
2022-09-28T11:45:07.250Z,7.50
2022-09-28T11:47:36.024Z,3.80
2022-09-28T11:50:03.298Z,1.80
2022-09-28T11:52:32.189Z,1.73
2022-09-28T11:54:59.710Z,9.23
2022-09-28T11:57:26.977Z,7.63
2022-09-28T11:59:54.259Z,4.95
2022-09-28T12:02:21.688Z,3.17
2022-09-28T12:04:52.704Z,4.28
2022-09-28T12:07:23.568Z,2.92
2022-09-28T12:09:51.044Z,5.30
2022-09-28T12:12:19.621Z,3.45
2022-09-28T12:14:47.140Z,5.38
2022-09-28T12:17:17.891Z,1.50
2022-09-28T12:19:47.147Z,4.53
2022-09-28T12:22:14.533Z,2.40
2022-09-28T12:24:41.993Z,4.78
2022-09-28T12:27:09.198Z,7.95
2022-09-28T12:29:36.397Z,3.53
2022-09-28T12:32:03.662Z,4.93
2022-09-28T12:34:30.876Z,6.50
2022-09-28T12:36:58.609Z,3.67
2022-09-28T12:39:40.947Z,2.55
2022-09-28T12:42:14.832Z,5.15
2022-09-28T12:44:42.284Z,5.30
2022-09-28T12:47:09.815Z,2.35
2022-09-28T12:50:33.352Z,5.82
2022-09-28T12:52:24.546Z,3.90
2022-09-28T12:54:52.376Z,2.83
2022-09-28T12:57:19.571Z,2.83
2022-09-28T12:59:47.215Z,4.95
2022-09-28T13:02:14.917Z,5.47
2022-09-28T13:04:44.251Z,6.70
2022-09-28T13:07:11.635Z,2.90
2022-09-28T13:09:38.815Z,4.80
2022-09-28T13:12:06.081Z,8.85
2022-09-28T13:14:33.775Z,2.03
2022-09-28T13:17:01.150Z,2.75
2022-09-28T13:19:28.398Z,3.35
2022-09-28T13:21:55.681Z,3.83
2022-09-28T13:24:33.471Z,5.97
2022-09-28T13:27:01.213Z,3.80
2022-09-28T13:29:28.716Z,3.00
2022-09-28T13:31:57.108Z,5.90
2022-09-28T13:34:25.001Z,3.22
2022-09-28T13:36:52.234Z,3.30
2022-09-28T13:39:19.373Z,6.28
2022-09-28T13:41:46.620Z,3.60
2022-09-28T13:44:13.927Z,3.25
2022-09-28T13:46:41.161Z,3.15
2022-09-28T13:49:08.377Z,4.10
2022-09-28T13:51:35.632Z,3.70
2022-09-28T13:54:02.894Z,2.05
2022-09-28T13:56:30.187Z,1.27
2022-09-28T13:58:57.912Z,2.50
2022-09-28T14:01:25.299Z,2.75
2022-09-28T14:03:52.623Z,6.38
2022-09-28T14:06:19.964Z,6.30
2022-09-28T14:08:47.555Z,3.08
2022-09-28T14:11:15.052Z,1.65
2022-09-28T14:13:42.550Z,2.85
2022-09-28T14:16:09.835Z,1.80
2022-09-28T14:18:37.055Z,7.80
2022-09-28T14:21:04.397Z,4.30
2022-09-28T14:23:31.597Z,10.30
2022-09-28T14:25:59.217Z,1.73
2022-09-28T14:28:26.479Z,12.68
2022-09-28T14:30:59.667Z,7.28
2022-09-28T14:33:26.958Z,4.35
2022-09-28T14:35:55.695Z,1.10
2022-09-28T14:38:41.934Z,2.78
2022-09-28T14:41:15.389Z,7.22
2022-09-28T14:43:42.738Z,6.03
2022-09-28T14:46:14.656Z,1.58
2022-09-28T14:48:43.307Z,5.47
2022-09-28T14:51:10.481Z,5.97
2022-09-28T14:53:37.812Z,1.95
2022-09-28T14:56:05.075Z,2.55
2022-09-28T14:58:33.658Z,3.53
2022-09-28T15:01:00.860Z,4.65
2022-09-28T15:03:28.338Z,4.78
2022-09-28T15:05:55.736Z,1.85
2022-09-28T15:08:23.186Z,3.25
2022-09-28T15:10:50.575Z,4.25
2022-09-28T15:13:18.274Z,3.40
2022-09-28T15:15:46.041Z,2.20
2022-09-28T15:18:13.321Z,3.95
2022-09-28T15:20:41.608Z,2.83
2022-09-28T15:23:08.865Z,2.78
2022-09-28T15:25:36.426Z,3.65
2022-09-28T15:28:06.527Z,3.13
2022-09-28T15:30:34.188Z,2.90
2022-09-28T15:33:20.556Z,0.95
2022-09-28T15:35:47.884Z,2.95
2022-09-28T15:38:15.591Z,3.28
2022-09-28T15:40:43.119Z,5.50
2022-09-28T15:43:11.207Z,3.13
2022-09-28T15:45:38.541Z,2.95
2022-09-28T15:48:08.146Z,1.77
2022-09-28T15:50:36.715Z,3.95
2022-09-28T15:53:04.255Z,5.45
2022-09-28T15:55:31.520Z,1.05
2022-09-28T15:57:58.734Z,4.32
2022-09-28T16:00:26.014Z,5.47
2022-09-28T16:02:53.302Z,1.88
2022-09-28T16:05:20.767Z,3.60
2022-09-28T16:07:49.166Z,5.72
2022-09-28T16:10:18.789Z,4.57
2022-09-28T16:12:49.006Z,6.25
2022-09-28T16:15:18.290Z,6.93
2022-09-28T16:17:48.366Z,6.00
2022-09-28T16:20:15.613Z,7.07
2022-09-28T16:22:42.883Z,4.03
2022-09-28T16:25:10.188Z,2.25
2022-09-28T16:27:37.679Z,4.43
2022-09-28T16:30:05.297Z,5.30
2022-09-28T16:32:33.664Z,4.38
2022-09-28T16:35:01.325Z,7.07
2022-09-28T16:37:31.334Z,1.65
2022-09-28T16:39:58.625Z,2.75
2022-09-28T16:42:25.801Z,3.08
2022-09-28T16:44:53.648Z,6.28
2022-09-28T16:47:20.816Z,2.35
2022-09-28T16:49:48.425Z,7.50
2022-09-28T16:52:35.543Z,7.65
2022-09-28T16:58:06.200Z,3.72
2022-09-28T17:00:33.739Z,5.88
2022-09-28T17:03:00.995Z,3.70
2022-09-28T17:05:28.653Z,3.92
2022-09-28T17:07:56.024Z,4.93
2022-09-28T17:10:23.251Z,6.00
2022-09-28T17:12:50.653Z,5.25
2022-09-28T17:15:19.737Z,6.07
2022-09-28T17:17:47.121Z,3.58
2022-09-28T17:20:15.736Z,3.20
2022-09-28T17:22:43.370Z,5.93
2022-09-28T17:25:12.736Z,3.97
2022-09-28T17:27:41.911Z,3.40
2022-09-28T17:30:09.099Z,5.68
2022-09-28T17:32:36.510Z,3.80
2022-09-28T17:35:23.818Z,3.97
2022-09-28T17:37:51.189Z,6.53
2022-09-28T17:40:18.493Z,2.90
2022-09-28T17:42:47.078Z,7.40
2022-09-28T17:45:14.238Z,5.05
2022-09-28T17:47:41.512Z,3.78
2022-09-28T17:50:08.714Z,3.80
2022-09-28T17:52:35.954Z,9.70
2022-09-28T17:55:03.235Z,2.83
2022-09-28T17:57:30.448Z,6.20
2022-09-28T17:59:58.339Z,5.68
2022-09-28T18:02:25.695Z,4.38
2022-09-28T18:04:53.281Z,6.28
2022-09-28T18:07:20.879Z,5.03
2022-09-28T18:09:48.072Z,5.80
2022-09-28T18:12:15.457Z,9.02
2022-09-28T18:14:42.700Z,7.10
2022-09-28T18:17:10.447Z,8.55
2022-09-28T18:19:37.613Z,5.32
2022-09-28T18:22:04.843Z,5.93
2022-09-28T18:24:32.594Z,10.77
2022-09-28T18:26:59.974Z,7.55
2022-09-28T18:29:31.000Z,14.32
2022-09-28T18:32:00.409Z,4.72
2022-09-28T18:34:27.661Z,3.42
2022-09-28T18:36:54.883Z,5.38
2022-09-28T18:39:22.137Z,7.30
2022-09-28T18:41:49.472Z,7.28
2022-09-28T18:44:16.708Z,9.23
2022-09-28T18:46:44.229Z,8.25
2022-09-28T18:49:11.587Z,5.35
2022-09-28T18:51:39.088Z,5.97
2022-09-28T18:54:07.553Z,3.55
2022-09-28T18:56:36.657Z,5.35
2022-09-28T18:59:07.644Z,9.10
2022-09-28T19:01:37.240Z,13.50
2022-09-28T19:04:04.517Z,9.15
2022-09-28T19:06:31.944Z,13.93
2022-09-28T19:08:59.421Z,7.50
2022-09-28T19:11:26.909Z,10.18
2022-09-28T19:13:54.396Z,10.82
2022-09-28T19:16:21.856Z,10.25
2022-09-28T19:18:50.745Z,10.00
2022-09-28T19:21:18.008Z,8.02
2022-09-28T19:23:53.598Z,11.18
2022-09-28T19:26:21.065Z,9.70
2022-09-28T19:28:48.376Z,7.70
2022-09-28T19:31:15.655Z,10.00
2022-09-28T19:33:43.809Z,10.55
2022-09-28T19:36:11.093Z,11.30
2022-09-28T19:38:38.502Z,6.63
2022-09-28T19:41:05.749Z,8.10
2022-09-28T19:43:34.847Z,6.63
2022-09-28T19:46:02.854Z,10.20
2022-09-28T19:48:30.125Z,10.65
2022-09-28T19:50:58.572Z,6.47
2022-09-28T19:53:25.925Z,8.60
2022-09-28T19:55:53.820Z,10.27
2022-09-28T19:58:21.264Z,5.18
2022-09-28T20:00:48.590Z,8.93
2022-09-28T20:03:15.791Z,6.63
2022-09-28T20:05:43.329Z,11.93
2022-09-28T20:08:10.632Z,7.05
2022-09-28T20:10:37.947Z,10.07
2022-09-28T20:13:05.286Z,14.82
2022-09-28T20:15:32.590Z,6.93
2022-09-28T20:17:59.797Z,6.15
2022-09-28T20:20:27.411Z,8.80
2022-09-28T20:22:54.657Z,5.85
2022-09-28T20:25:21.964Z,6.82
2022-09-28T20:27:49.995Z,5.82
2022-09-28T20:30:18.471Z,5.97
2022-09-28T20:32:49.438Z,8.88
2022-09-28T20:35:30.284Z,7.95
2022-09-28T20:38:07.841Z,6.78
2022-09-28T20:40:35.376Z,9.38
2022-09-28T20:43:02.691Z,5.28
2022-09-28T20:45:30.058Z,8.32
2022-09-28T20:47:57.401Z,7.05
2022-09-28T20:50:25.198Z,9.13
2022-09-28T20:52:52.482Z,6.70
2022-09-28T20:55:19.813Z,11.23
2022-09-28T20:57:47.140Z,8.15
2022-09-28T21:00:14.566Z,7.13
2022-09-28T21:02:41.921Z,6.72
2022-09-28T21:05:09.270Z,8.38
2022-09-28T21:07:36.577Z,10.45
2022-09-28T21:10:03.894Z,8.30
2022-09-28T21:12:31.318Z,8.48
2022-09-28T21:15:02.256Z,8.35
2022-09-28T21:17:33.052Z,9.77
2022-09-28T21:20:00.354Z,10.82
2022-09-28T21:22:27.778Z,15.38
2022-09-28T21:24:55.169Z,8.45
2022-09-28T21:27:22.450Z,5.10
2022-09-28T21:29:49.709Z,5.43
2022-09-28T21:32:17.043Z,9.13
2022-09-28T21:34:44.290Z,6.25
2022-09-28T21:37:11.763Z,7.03
2022-09-28T21:39:39.420Z,10.35
2022-09-28T21:42:06.682Z,11.57
2022-09-28T21:44:34.197Z,13.73
2022-09-28T21:47:01.422Z,9.07
2022-09-28T21:49:28.716Z,9.55
2022-09-28T21:51:55.998Z,8.50
2022-09-28T21:54:23.256Z,7.57
2022-09-28T21:56:50.509Z,6.55
2022-09-28T21:59:17.779Z,6.72
2022-09-28T22:01:45.110Z,6.45
2022-09-28T22:04:12.418Z,9.18
2022-09-28T22:06:39.869Z,6.75
2022-09-28T22:09:08.052Z,8.23
2022-09-28T22:11:35.707Z,9.27
2022-09-28T22:14:03.018Z,10.43
2022-09-28T22:16:30.419Z,8.60
2022-09-28T22:18:57.735Z,8.10
2022-09-28T22:21:25.065Z,12.48
2022-09-28T22:23:52.948Z,8.50
2022-09-28T22:26:20.319Z,6.72
2022-09-28T22:28:48.032Z,5.05
2022-09-28T22:31:15.262Z,9.57
2022-09-28T22:33:42.593Z,6.10
2022-09-28T22:36:10.165Z,8.13
2022-09-28T22:38:37.796Z,10.70
2022-09-28T22:41:04.968Z,8.57
2022-09-28T22:43:32.231Z,7.00
2022-09-28T22:45:59.736Z,6.90
2022-09-28T22:48:27.077Z,8.77
2022-09-28T22:50:54.316Z,7.55
2022-09-28T22:53:21.525Z,6.93
2022-09-28T22:55:48.804Z,14.43
2022-09-28T22:58:16.070Z,16.20
2022-09-28T23:00:43.363Z,6.07
2022-09-28T23:03:10.638Z,10.13
2022-09-28T23:05:37.947Z,10.98
2022-09-28T23:08:05.269Z,10.35
2022-09-28T23:10:32.531Z,14.10
2022-09-28T23:13:00.941Z,7.22
2022-09-28T23:15:29.151Z,5.72
2022-09-28T23:17:56.387Z,6.38
2022-09-28T23:20:23.772Z,8.27
2022-09-28T23:22:51.049Z,5.85
2022-09-28T23:25:18.355Z,7.78
2022-09-28T23:27:45.820Z,13.77
2022-09-28T23:30:13.190Z,7.95
2022-09-28T23:32:40.351Z,4.93
2022-09-28T23:35:07.722Z,7.47
2022-09-28T23:37:35.145Z,12.15
2022-09-28T23:40:03.697Z,9.98
2022-09-28T23:42:30.902Z,8.45
2022-09-28T23:44:58.190Z,10.98
2022-09-28T23:47:25.406Z,9.50
2022-09-28T23:49:52.628Z,11.57
2022-09-28T23:52:20.204Z,6.53
2022-09-28T23:54:47.503Z,7.90
2022-09-28T23:57:14.708Z,7.13
2022-09-28T23:59:41.969Z,7.28
